sensor_id;sensor_type;location;lat;lon;timestamp;P1;durP1;ratioP1;P2;durP2;ratioP2
11533;SDS011;5823;50.588;8.462;2023-02-08T00:00:19;0.70;;;0.70;;
11533;SDS011;5823;50.588;8.462;2023-02-08T00:02:45;0.20;;;0.20;;
11533;SDS011;5823;50.588;8.462;2023-02-08T00:05:13;0.40;;;0.40;;
11533;SDS011;5823;50.588;8.462;2023-02-08T00:07:39;0.68;;;0.63;;
11533;SDS011;5823;50.588;8.462;2023-02-08T00:10:05;0.80;;;0.73;;
11533;SDS011;5823;50.588;8.462;2023-02-08T00:12:32;0.55;;;0.55;;
11533;SDS011;5823;50.588;8.462;2023-02-08T00:14:58;0.98;;;0.73;;
11533;SDS011;5823;50.588;8.462;2023-02-08T00:17:24;0.25;;;0.25;;
11533;SDS011;5823;50.588;8.462;2023-02-08T00:19:50;0.40;;;0.40;;
11533;SDS011;5823;50.588;8.462;2023-02-08T00:22:18;0.52;;;0.52;;
11533;SDS011;5823;50.588;8.462;2023-02-08T00:24:44;0.68;;;0.65;;
11533;SDS011;5823;50.588;8.462;2023-02-08T00:27:10;0.90;;;0.70;;
11533;SDS011;5823;50.588;8.462;2023-02-08T00:29:37;0.82;;;0.70;;
11533;SDS011;5823;50.588;8.462;2023-02-08T00:32:04;0.60;;;0.60;;
11533;SDS011;5823;50.588;8.462;2023-02-08T00:34:30;0.60;;;0.60;;
11533;SDS011;5823;50.588;8.462;2023-02-08T00:36:56;0.70;;;0.70;;
11533;SDS011;5823;50.588;8.462;2023-02-08T00:39:24;0.40;;;0.40;;
11533;SDS011;5823;50.588;8.462;2023-02-08T00:41:50;0.70;;;0.63;;
11533;SDS011;5823;50.588;8.462;2023-02-08T00:44:17;0.50;;;0.50;;
11533;SDS011;5823;50.588;8.462;2023-02-08T00:46:43;0.95;;;0.63;;
11533;SDS011;5823;50.588;8.462;2023-02-08T00:49:09;0.35;;;0.35;;
11533;SDS011;5823;50.588;8.462;2023-02-08T00:51:35;0.30;;;0.30;;
11533;SDS011;5823;50.588;8.462;2023-02-08T00:54:02;0.47;;;0.47;;
11533;SDS011;5823;50.588;8.462;2023-02-08T00:56:29;0.50;;;0.43;;
11533;SDS011;5823;50.588;8.462;2023-02-08T00:58:55;0.43;;;0.43;;
11533;SDS011;5823;50.588;8.462;2023-02-08T01:01:22;0.60;;;0.50;;
11533;SDS011;5823;50.588;8.462;2023-02-08T01:03:48;1.07;;;0.87;;
11533;SDS011;5823;50.588;8.462;2023-02-08T01:06:15;0.60;;;0.60;;
11533;SDS011;5823;50.588;8.462;2023-02-08T01:08:42;0.45;;;0.45;;
11533;SDS011;5823;50.588;8.462;2023-02-08T01:11:10;0.90;;;0.73;;
11533;SDS011;5823;50.588;8.462;2023-02-08T01:13:38;0.57;;;0.57;;
11533;SDS011;5823;50.588;8.462;2023-02-08T01:16:05;0.82;;;0.80;;
11533;SDS011;5823;50.588;8.462;2023-02-08T01:18:32;0.43;;;0.43;;
11533;SDS011;5823;50.588;8.462;2023-02-08T01:21:02;0.70;;;0.70;;
11533;SDS011;5823;50.588;8.462;2023-02-08T01:23:28;0.70;;;0.50;;
11533;SDS011;5823;50.588;8.462;2023-02-08T01:25:54;1.07;;;0.80;;
11533;SDS011;5823;50.588;8.462;2023-02-08T01:28:21;1.27;;;0.93;;
11533;SDS011;5823;50.588;8.462;2023-02-08T01:30:48;0.80;;;0.70;;
11533;SDS011;5823;50.588;8.462;2023-02-08T01:33:14;1.00;;;0.77;;
11533;SDS011;5823;50.588;8.462;2023-02-08T01:35:41;0.60;;;0.60;;
11533;SDS011;5823;50.588;8.462;2023-02-08T01:38:07;0.50;;;0.50;;
11533;SDS011;5823;50.588;8.462;2023-02-08T01:40:33;0.85;;;0.70;;
11533;SDS011;5823;50.588;8.462;2023-02-08T01:42:59;0.70;;;0.60;;
11533;SDS011;5823;50.588;8.462;2023-02-08T01:45:26;0.43;;;0.43;;
11533;SDS011;5823;50.588;8.462;2023-02-08T01:47:55;0.57;;;0.50;;
11533;SDS011;5823;50.588;8.462;2023-02-08T01:50:25;0.40;;;0.40;;
11533;SDS011;5823;50.588;8.462;2023-02-08T01:52:54;0.30;;;0.30;;
11533;SDS011;5823;50.588;8.462;2023-02-08T01:55:22;0.63;;;0.32;;
11533;SDS011;5823;50.588;8.462;2023-02-08T01:57:51;0.25;;;0.25;;
11533;SDS011;5823;50.588;8.462;2023-02-08T02:00:19;0.75;;;0.45;;
11533;SDS011;5823;50.588;8.462;2023-02-08T02:02:46;0.40;;;0.40;;
11533;SDS011;5823;50.588;8.462;2023-02-08T02:05:14;0.40;;;0.40;;
11533;SDS011;5823;50.588;8.462;2023-02-08T02:07:41;0.60;;;0.60;;
11533;SDS011;5823;50.588;8.462;2023-02-08T02:10:08;0.60;;;0.50;;
11533;SDS011;5823;50.588;8.462;2023-02-08T02:12:35;0.35;;;0.32;;
11533;SDS011;5823;50.588;8.462;2023-02-08T02:15:03;0.52;;;0.52;;
11533;SDS011;5823;50.588;8.462;2023-02-08T02:17:29;0.45;;;0.45;;
11533;SDS011;5823;50.588;8.462;2023-02-08T02:19:56;0.80;;;0.65;;
11533;SDS011;5823;50.588;8.462;2023-02-08T02:22:33;0.88;;;0.70;;
11533;SDS011;5823;50.588;8.462;2023-02-08T02:25:19;0.68;;;0.45;;
11533;SDS011;5823;50.588;8.462;2023-02-08T02:30:47;0.95;;;0.65;;
11533;SDS011;5823;50.588;8.462;2023-02-08T02:33:35;0.50;;;0.50;;
11533;SDS011;5823;50.588;8.462;2023-02-08T02:36:08;0.40;;;0.40;;
11533;SDS011;5823;50.588;8.462;2023-02-08T02:38:40;0.40;;;0.40;;
11533;SDS011;5823;50.588;8.462;2023-02-08T02:41:12;0.55;;;0.55;;
11533;SDS011;5823;50.588;8.462;2023-02-08T02:44:02;0.70;;;0.60;;
11533;SDS011;5823;50.588;8.462;2023-02-08T02:46:32;0.70;;;0.67;;
11533;SDS011;5823;50.588;8.462;2023-02-08T02:49:03;0.50;;;0.50;;
11533;SDS011;5823;50.588;8.462;2023-02-08T02:51:31;0.38;;;0.38;;
11533;SDS011;5823;50.588;8.462;2023-02-08T02:54:04;0.30;;;0.30;;
11533;SDS011;5823;50.588;8.462;2023-02-08T02:56:33;0.28;;;0.28;;
11533;SDS011;5823;50.588;8.462;2023-02-08T02:59:01;0.50;;;0.50;;
11533;SDS011;5823;50.588;8.462;2023-02-08T03:01:28;0.30;;;0.30;;
11533;SDS011;5823;50.588;8.462;2023-02-08T03:03:55;0.20;;;0.20;;
11533;SDS011;5823;50.588;8.462;2023-02-08T03:06:25;0.30;;;0.30;;
11533;SDS011;5823;50.588;8.462;2023-02-08T03:08:56;0.40;;;0.40;;
11533;SDS011;5823;50.588;8.462;2023-02-08T03:11:26;0.30;;;0.30;;
11533;SDS011;5823;50.588;8.462;2023-02-08T03:14:06;0.40;;;0.40;;
11533;SDS011;5823;50.588;8.462;2023-02-08T03:16:41;0.50;;;0.50;;
11533;SDS011;5823;50.588;8.462;2023-02-08T03:19:14;0.30;;;0.30;;
11533;SDS011;5823;50.588;8.462;2023-02-08T03:21:47;0.40;;;0.40;;
11533;SDS011;5823;50.588;8.462;2023-02-08T03:24:20;0.25;;;0.25;;
11533;SDS011;5823;50.588;8.462;2023-02-08T03:26:49;0.38;;;0.38;;
11533;SDS011;5823;50.588;8.462;2023-02-08T03:29:19;0.60;;;0.60;;
11533;SDS011;5823;50.588;8.462;2023-02-08T03:31:51;0.50;;;0.47;;
11533;SDS011;5823;50.588;8.462;2023-02-08T03:34:19;0.65;;;0.65;;
11533;SDS011;5823;50.588;8.462;2023-02-08T03:36:51;0.40;;;0.40;;
11533;SDS011;5823;50.588;8.462;2023-02-08T03:39:20;0.57;;;0.55;;
11533;SDS011;5823;50.588;8.462;2023-02-08T03:41:49;0.60;;;0.52;;
11533;SDS011;5823;50.588;8.462;2023-02-08T03:44:17;0.70;;;0.50;;
11533;SDS011;5823;50.588;8.462;2023-02-08T03:46:46;0.60;;;0.57;;
11533;SDS011;5823;50.588;8.462;2023-02-08T03:49:18;0.30;;;0.30;;
11533;SDS011;5823;50.588;8.462;2023-02-08T03:51:46;0.40;;;0.40;;
11533;SDS011;5823;50.588;8.462;2023-02-08T03:54:14;0.40;;;0.40;;
11533;SDS011;5823;50.588;8.462;2023-02-08T03:56:43;0.80;;;0.40;;
11533;SDS011;5823;50.588;8.462;2023-02-08T03:59:10;0.50;;;0.40;;
11533;SDS011;5823;50.588;8.462;2023-02-08T04:01:40;0.40;;;0.40;;
11533;SDS011;5823;50.588;8.462;2023-02-08T04:04:07;0.85;;;0.60;;
11533;SDS011;5823;50.588;8.462;2023-02-08T04:06:33;0.50;;;0.50;;
11533;SDS011;5823;50.588;8.462;2023-02-08T04:09:00;0.47;;;0.47;;
11533;SDS011;5823;50.588;8.462;2023-02-08T04:11:27;0.43;;;0.43;;
11533;SDS011;5823;50.588;8.462;2023-02-08T04:13:54;0.47;;;0.40;;
11533;SDS011;5823;50.588;8.462;2023-02-08T04:16:20;0.50;;;0.40;;
11533;SDS011;5823;50.588;8.462;2023-02-08T04:18:46;0.50;;;0.50;;
11533;SDS011;5823;50.588;8.462;2023-02-08T04:21:12;0.30;;;0.25;;
11533;SDS011;5823;50.588;8.462;2023-02-08T04:23:38;0.50;;;0.50;;
11533;SDS011;5823;50.588;8.462;2023-02-08T04:26:05;0.65;;;0.65;;
11533;SDS011;5823;50.588;8.462;2023-02-08T04:28:34;0.40;;;0.40;;
11533;SDS011;5823;50.588;8.462;2023-02-08T04:31:00;0.52;;;0.40;;
11533;SDS011;5823;50.588;8.462;2023-02-08T04:33:26;0.60;;;0.60;;
11533;SDS011;5823;50.588;8.462;2023-02-08T04:35:52;0.60;;;0.60;;
11533;SDS011;5823;50.588;8.462;2023-02-08T04:38:18;0.40;;;0.40;;
11533;SDS011;5823;50.588;8.462;2023-02-08T04:40:45;0.57;;;0.57;;
11533;SDS011;5823;50.588;8.462;2023-02-08T04:43:11;0.77;;;0.70;;
11533;SDS011;5823;50.588;8.462;2023-02-08T04:45:39;0.40;;;0.40;;
11533;SDS011;5823;50.588;8.462;2023-02-08T04:48:05;0.40;;;0.40;;
11533;SDS011;5823;50.588;8.462;2023-02-08T04:50:32;0.50;;;0.43;;
11533;SDS011;5823;50.588;8.462;2023-02-08T04:52:58;0.60;;;0.60;;
11533;SDS011;5823;50.588;8.462;2023-02-08T04:55:24;0.43;;;0.30;;
11533;SDS011;5823;50.588;8.462;2023-02-08T04:57:50;0.47;;;0.45;;
11533;SDS011;5823;50.588;8.462;2023-02-08T05:00:17;0.40;;;0.40;;
11533;SDS011;5823;50.588;8.462;2023-02-08T05:02:45;0.40;;;0.40;;
11533;SDS011;5823;50.588;8.462;2023-02-08T05:05:11;0.20;;;0.20;;
11533;SDS011;5823;50.588;8.462;2023-02-08T05:07:38;0.30;;;0.30;;
11533;SDS011;5823;50.588;8.462;2023-02-08T05:10:04;0.73;;;0.70;;
11533;SDS011;5823;50.588;8.462;2023-02-08T05:12:31;0.53;;;0.50;;
11533;SDS011;5823;50.588;8.462;2023-02-08T05:14:57;0.63;;;0.50;;
11533;SDS011;5823;50.588;8.462;2023-02-08T05:17:23;0.50;;;0.28;;
11533;SDS011;5823;50.588;8.462;2023-02-08T05:19:51;0.23;;;0.23;;
11533;SDS011;5823;50.588;8.462;2023-02-08T05:22:17;0.40;;;0.40;;
11533;SDS011;5823;50.588;8.462;2023-02-08T05:24:43;0.65;;;0.60;;
11533;SDS011;5823;50.588;8.462;2023-02-08T05:27:09;0.50;;;0.50;;
11533;SDS011;5823;50.588;8.462;2023-02-08T05:29:35;0.37;;;0.37;;
11533;SDS011;5823;50.588;8.462;2023-02-08T05:32:02;0.50;;;0.30;;
11533;SDS011;5823;50.588;8.462;2023-02-08T05:34:28;0.30;;;0.30;;
11533;SDS011;5823;50.588;8.462;2023-02-08T05:36:56;0.30;;;0.30;;
11533;SDS011;5823;50.588;8.462;2023-02-08T05:39:22;0.20;;;0.20;;
11533;SDS011;5823;50.588;8.462;2023-02-08T05:41:48;0.60;;;0.57;;
11533;SDS011;5823;50.588;8.462;2023-02-08T05:44:14;0.40;;;0.40;;
11533;SDS011;5823;50.588;8.462;2023-02-08T05:46:40;0.53;;;0.50;;
11533;SDS011;5823;50.588;8.462;2023-02-08T05:49:07;0.40;;;0.40;;
11533;SDS011;5823;50.588;8.462;2023-02-08T05:51:33;0.50;;;0.50;;
11533;SDS011;5823;50.588;8.462;2023-02-08T05:54:01;0.30;;;0.30;;
11533;SDS011;5823;50.588;8.462;2023-02-08T05:56:27;0.33;;;0.33;;
11533;SDS011;5823;50.588;8.462;2023-02-08T05:58:53;0.50;;;0.50;;
11533;SDS011;5823;50.588;8.462;2023-02-08T06:01:20;0.60;;;0.57;;
11533;SDS011;5823;50.588;8.462;2023-02-08T06:03:46;0.40;;;0.40;;
11533;SDS011;5823;50.588;8.462;2023-02-08T06:06:12;0.80;;;0.80;;
11533;SDS011;5823;50.588;8.462;2023-02-08T06:08:39;0.90;;;0.80;;
11533;SDS011;5823;50.588;8.462;2023-02-08T06:11:06;0.70;;;0.70;;
11533;SDS011;5823;50.588;8.462;2023-02-08T06:13:33;0.85;;;0.77;;
11533;SDS011;5823;50.588;8.462;2023-02-08T06:15:59;0.90;;;0.80;;
11533;SDS011;5823;50.588;8.462;2023-02-08T06:18:25;0.50;;;0.50;;
11533;SDS011;5823;50.588;8.462;2023-02-08T06:20:52;0.50;;;0.50;;
11533;SDS011;5823;50.588;8.462;2023-02-08T06:23:18;0.50;;;0.50;;
11533;SDS011;5823;50.588;8.462;2023-02-08T06:25:45;0.37;;;0.37;;
11533;SDS011;5823;50.588;8.462;2023-02-08T06:28:12;0.30;;;0.30;;
11533;SDS011;5823;50.588;8.462;2023-02-08T06:30:38;1.00;;;0.90;;
11533;SDS011;5823;50.588;8.462;2023-02-08T06:33:05;0.77;;;0.60;;
11533;SDS011;5823;50.588;8.462;2023-02-08T06:35:31;0.93;;;0.55;;
11533;SDS011;5823;50.588;8.462;2023-02-08T06:37:57;0.77;;;0.73;;
11533;SDS011;5823;50.588;8.462;2023-02-08T06:40:23;0.70;;;0.70;;
11533;SDS011;5823;50.588;8.462;2023-02-08T06:42:50;0.60;;;0.60;;
11533;SDS011;5823;50.588;8.462;2023-02-08T06:45:17;0.70;;;0.70;;
11533;SDS011;5823;50.588;8.462;2023-02-08T06:47:44;0.55;;;0.55;;
11533;SDS011;5823;50.588;8.462;2023-02-08T06:50:10;0.87;;;0.60;;
11533;SDS011;5823;50.588;8.462;2023-02-08T06:52:37;0.77;;;0.70;;
11533;SDS011;5823;50.588;8.462;2023-02-08T06:55:10;0.50;;;0.50;;
11533;SDS011;5823;50.588;8.462;2023-02-08T06:57:39;0.73;;;0.70;;
11533;SDS011;5823;50.588;8.462;2023-02-08T07:00:09;0.67;;;0.60;;
11533;SDS011;5823;50.588;8.462;2023-02-08T07:02:36;0.70;;;0.57;;
11533;SDS011;5823;50.588;8.462;2023-02-08T07:05:03;0.77;;;0.70;;
11533;SDS011;5823;50.588;8.462;2023-02-08T07:07:29;0.47;;;0.47;;
11533;SDS011;5823;50.588;8.462;2023-02-08T07:09:55;0.80;;;0.70;;
11533;SDS011;5823;50.588;8.462;2023-02-08T07:12:21;0.47;;;0.40;;
11533;SDS011;5823;50.588;8.462;2023-02-08T07:14:48;0.70;;;0.70;;
11533;SDS011;5823;50.588;8.462;2023-02-08T07:17:14;0.67;;;0.67;;
11533;SDS011;5823;50.588;8.462;2023-02-08T07:19:42;1.03;;;0.60;;
11533;SDS011;5823;50.588;8.462;2023-02-08T07:22:08;0.83;;;0.63;;
11533;SDS011;5823;50.588;8.462;2023-02-08T07:24:34;1.03;;;0.80;;
11533;SDS011;5823;50.588;8.462;2023-02-08T07:27:01;1.00;;;0.60;;
11533;SDS011;5823;50.588;8.462;2023-02-08T07:29:27;0.57;;;0.57;;
11533;SDS011;5823;50.588;8.462;2023-02-08T07:31:54;0.30;;;0.20;;
11533;SDS011;5823;50.588;8.462;2023-02-08T07:34:20;0.50;;;0.47;;
11533;SDS011;5823;50.588;8.462;2023-02-08T07:36:47;1.00;;;0.90;;
11533;SDS011;5823;50.588;8.462;2023-02-08T07:39:14;0.50;;;0.50;;
11533;SDS011;5823;50.588;8.462;2023-02-08T07:41:40;0.60;;;0.60;;
11533;SDS011;5823;50.588;8.462;2023-02-08T07:44:06;0.50;;;0.50;;
11533;SDS011;5823;50.588;8.462;2023-02-08T07:46:32;0.70;;;0.65;;
11533;SDS011;5823;50.588;8.462;2023-02-08T07:48:59;0.30;;;0.30;;
11533;SDS011;5823;50.588;8.462;2023-02-08T07:51:25;0.50;;;0.50;;
11533;SDS011;5823;50.588;8.462;2023-02-08T07:53:52;0.47;;;0.47;;
11533;SDS011;5823;50.588;8.462;2023-02-08T07:56:19;0.87;;;0.70;;
11533;SDS011;5823;50.588;8.462;2023-02-08T07:58:45;0.63;;;0.60;;
11533;SDS011;5823;50.588;8.462;2023-02-08T08:01:11;0.77;;;0.60;;
11533;SDS011;5823;50.588;8.462;2023-02-08T08:03:37;1.10;;;0.90;;
11533;SDS011;5823;50.588;8.462;2023-02-08T08:06:04;1.20;;;0.90;;
11533;SDS011;5823;50.588;8.462;2023-02-08T08:08:30;1.00;;;0.93;;
11533;SDS011;5823;50.588;8.462;2023-02-08T08:10:58;0.80;;;0.80;;
11533;SDS011;5823;50.588;8.462;2023-02-08T08:13:24;0.70;;;0.70;;
11533;SDS011;5823;50.588;8.462;2023-02-08T08:15:50;1.07;;;1.00;;
11533;SDS011;5823;50.588;8.462;2023-02-08T08:18:16;0.70;;;0.70;;
11533;SDS011;5823;50.588;8.462;2023-02-08T08:20:42;0.60;;;0.60;;
11533;SDS011;5823;50.588;8.462;2023-02-08T08:23:09;0.60;;;0.60;;
11533;SDS011;5823;50.588;8.462;2023-02-08T08:25:35;0.60;;;0.60;;
11533;SDS011;5823;50.588;8.462;2023-02-08T08:28:03;0.50;;;0.50;;
11533;SDS011;5823;50.588;8.462;2023-02-08T08:30:29;0.35;;;0.35;;
11533;SDS011;5823;50.588;8.462;2023-02-08T08:32:55;0.40;;;0.40;;
11533;SDS011;5823;50.588;8.462;2023-02-08T08:35:22;0.32;;;0.32;;
11533;SDS011;5823;50.588;8.462;2023-02-08T08:37:48;0.40;;;0.40;;
11533;SDS011;5823;50.588;8.462;2023-02-08T08:40:14;0.50;;;0.50;;
11533;SDS011;5823;50.588;8.462;2023-02-08T08:42:40;0.40;;;0.40;;
11533;SDS011;5823;50.588;8.462;2023-02-08T08:45:09;0.60;;;0.60;;
11533;SDS011;5823;50.588;8.462;2023-02-08T08:47:35;0.70;;;0.60;;
11533;SDS011;5823;50.588;8.462;2023-02-08T08:50:02;0.40;;;0.40;;
11533;SDS011;5823;50.588;8.462;2023-02-08T08:52:28;0.55;;;0.55;;
11533;SDS011;5823;50.588;8.462;2023-02-08T08:54:54;0.63;;;0.55;;
11533;SDS011;5823;50.588;8.462;2023-02-08T08:57:20;0.40;;;0.40;;
11533;SDS011;5823;50.588;8.462;2023-02-08T08:59:47;0.90;;;0.68;;
11533;SDS011;5823;50.588;8.462;2023-02-08T09:02:14;0.60;;;0.60;;
11533;SDS011;5823;50.588;8.462;2023-02-08T09:04:40;0.40;;;0.40;;
11533;SDS011;5823;50.588;8.462;2023-02-08T09:07:07;0.40;;;0.40;;
11533;SDS011;5823;50.588;8.462;2023-02-08T09:09:34;0.50;;;0.45;;
11533;SDS011;5823;50.588;8.462;2023-02-08T09:12:01;0.57;;;0.47;;
11533;SDS011;5823;50.588;8.462;2023-02-08T09:14:27;0.67;;;0.63;;
11533;SDS011;5823;50.588;8.462;2023-02-08T09:16:53;0.82;;;0.50;;
11533;SDS011;5823;50.588;8.462;2023-02-08T09:19:21;0.45;;;0.45;;
11533;SDS011;5823;50.588;8.462;2023-02-08T09:21:47;0.30;;;0.30;;
11533;SDS011;5823;50.588;8.462;2023-02-08T09:24:13;0.60;;;0.50;;
11533;SDS011;5823;50.588;8.462;2023-02-08T09:26:40;0.57;;;0.57;;
11533;SDS011;5823;50.588;8.462;2023-02-08T09:29:07;1.08;;;0.60;;
11533;SDS011;5823;50.588;8.462;2023-02-08T09:31:33;0.30;;;0.30;;
11533;SDS011;5823;50.588;8.462;2023-02-08T09:34:01;0.52;;;0.43;;
11533;SDS011;5823;50.588;8.462;2023-02-08T09:36:30;0.57;;;0.55;;
11533;SDS011;5823;50.588;8.462;2023-02-08T09:38:57;0.45;;;0.45;;
11533;SDS011;5823;50.588;8.462;2023-02-08T09:41:28;0.40;;;0.40;;
11533;SDS011;5823;50.588;8.462;2023-02-08T09:44:01;0.40;;;0.40;;
11533;SDS011;5823;50.588;8.462;2023-02-08T09:46:29;0.52;;;0.52;;
11533;SDS011;5823;50.588;8.462;2023-02-08T09:48:57;0.60;;;0.52;;
11533;SDS011;5823;50.588;8.462;2023-02-08T09:51:27;0.60;;;0.60;;
11533;SDS011;5823;50.588;8.462;2023-02-08T09:53:56;0.55;;;0.55;;
11533;SDS011;5823;50.588;8.462;2023-02-08T09:56:25;0.40;;;0.40;;
11533;SDS011;5823;50.588;8.462;2023-02-08T09:58:53;0.47;;;0.40;;
11533;SDS011;5823;50.588;8.462;2023-02-08T10:01:20;0.52;;;0.50;;
11533;SDS011;5823;50.588;8.462;2023-02-08T10:03:47;0.40;;;0.32;;
11533;SDS011;5823;50.588;8.462;2023-02-08T10:06:15;0.35;;;0.32;;
11533;SDS011;5823;50.588;8.462;2023-02-08T10:08:43;0.47;;;0.47;;
11533;SDS011;5823;50.588;8.462;2023-02-08T10:11:21;0.70;;;0.70;;
11533;SDS011;5823;50.588;8.462;2023-02-08T10:13:53;0.68;;;0.60;;
11533;SDS011;5823;50.588;8.462;2023-02-08T10:16:26;0.55;;;0.47;;
11533;SDS011;5823;50.588;8.462;2023-02-08T10:18:59;0.45;;;0.45;;
11533;SDS011;5823;50.588;8.462;2023-02-08T10:21:39;0.30;;;0.30;;
11533;SDS011;5823;50.588;8.462;2023-02-08T10:26:56;0.50;;;0.40;;
11533;SDS011;5823;50.588;8.462;2023-02-08T10:32:13;0.32;;;0.32;;
11533;SDS011;5823;50.588;8.462;2023-02-08T10:34:42;0.38;;;0.38;;
11533;SDS011;5823;50.588;8.462;2023-02-08T10:37:12;0.43;;;0.43;;
11533;SDS011;5823;50.588;8.462;2023-02-08T10:39:38;0.45;;;0.45;;
11533;SDS011;5823;50.588;8.462;2023-02-08T10:42:07;0.77;;;0.73;;
11533;SDS011;5823;50.588;8.462;2023-02-08T10:44:38;0.47;;;0.47;;
11533;SDS011;5823;50.588;8.462;2023-02-08T10:47:09;0.55;;;0.55;;
11533;SDS011;5823;50.588;8.462;2023-02-08T10:49:39;1.30;;;1.20;;
11533;SDS011;5823;50.588;8.462;2023-02-08T10:52:07;1.35;;;1.25;;
11533;SDS011;5823;50.588;8.462;2023-02-08T10:54:34;2.13;;;1.77;;
11533;SDS011;5823;50.588;8.462;2023-02-08T10:57:01;1.50;;;1.35;;
11533;SDS011;5823;50.588;8.462;2023-02-08T10:59:30;1.48;;;1.30;;
11533;SDS011;5823;50.588;8.462;2023-02-08T11:01:57;1.80;;;1.33;;
11533;SDS011;5823;50.588;8.462;2023-02-08T11:04:24;1.63;;;1.52;;
11533;SDS011;5823;50.588;8.462;2023-02-08T11:06:50;1.98;;;1.25;;
11533;SDS011;5823;50.588;8.462;2023-02-08T11:09:22;1.60;;;1.40;;
11533;SDS011;5823;50.588;8.462;2023-02-08T11:11:49;2.53;;;1.80;;
11533;SDS011;5823;50.588;8.462;2023-02-08T11:14:17;1.98;;;1.73;;
11533;SDS011;5823;50.588;8.462;2023-02-08T11:16:49;1.60;;;1.42;;
11533;SDS011;5823;50.588;8.462;2023-02-08T11:19:19;2.00;;;1.77;;
11533;SDS011;5823;50.588;8.462;2023-02-08T11:21:47;2.58;;;2.08;;
11533;SDS011;5823;50.588;8.462;2023-02-08T11:24:21;2.47;;;2.00;;
11533;SDS011;5823;50.588;8.462;2023-02-08T11:26:50;1.95;;;1.50;;
11533;SDS011;5823;50.588;8.462;2023-02-08T11:29:17;1.40;;;1.20;;
11533;SDS011;5823;50.588;8.462;2023-02-08T11:31:55;0.80;;;0.80;;
11533;SDS011;5823;50.588;8.462;2023-02-08T11:34:22;1.35;;;0.90;;
11533;SDS011;5823;50.588;8.462;2023-02-08T11:36:49;1.35;;;1.10;;
11533;SDS011;5823;50.588;8.462;2023-02-08T11:39:16;1.13;;;1.02;;
11533;SDS011;5823;50.588;8.462;2023-02-08T11:41:43;2.70;;;2.05;;
11533;SDS011;5823;50.588;8.462;2023-02-08T11:44:12;2.17;;;1.80;;
11533;SDS011;5823;50.588;8.462;2023-02-08T11:46:43;1.50;;;1.13;;
11533;SDS011;5823;50.588;8.462;2023-02-08T11:49:17;1.05;;;0.95;;
11533;SDS011;5823;50.588;8.462;2023-02-08T11:51:45;1.75;;;1.58;;
11533;SDS011;5823;50.588;8.462;2023-02-08T11:56:59;1.02;;;0.93;;
11533;SDS011;5823;50.588;8.462;2023-02-08T11:59:26;2.13;;;1.90;;
11533;SDS011;5823;50.588;8.462;2023-02-08T12:01:53;2.00;;;1.77;;
11533;SDS011;5823;50.588;8.462;2023-02-08T12:04:20;2.00;;;1.80;;
11533;SDS011;5823;50.588;8.462;2023-02-08T12:09:36;1.48;;;1.30;;
11533;SDS011;5823;50.588;8.462;2023-02-08T12:12:10;1.17;;;1.08;;
11533;SDS011;5823;50.588;8.462;2023-02-08T12:14:45;0.90;;;0.90;;
11533;SDS011;5823;50.588;8.462;2023-02-08T12:20:09;1.10;;;1.00;;
11533;SDS011;5823;50.588;8.462;2023-02-08T12:22:42;1.23;;;1.13;;
11533;SDS011;5823;50.588;8.462;2023-02-08T12:25:18;2.17;;;1.65;;
11533;SDS011;5823;50.588;8.462;2023-02-08T12:27:47;2.72;;;1.92;;
11533;SDS011;5823;50.588;8.462;2023-02-08T12:30:19;2.20;;;1.60;;
11533;SDS011;5823;50.588;8.462;2023-02-08T12:32:51;1.50;;;1.40;;
11533;SDS011;5823;50.588;8.462;2023-02-08T12:35:23;1.70;;;1.40;;
11533;SDS011;5823;50.588;8.462;2023-02-08T12:37:55;1.33;;;1.10;;
11533;SDS011;5823;50.588;8.462;2023-02-08T12:40:43;1.00;;;0.93;;
11533;SDS011;5823;50.588;8.462;2023-02-08T12:43:31;1.40;;;1.00;;
11533;SDS011;5823;50.588;8.462;2023-02-08T12:48:45;1.58;;;1.48;;
11533;SDS011;5823;50.588;8.462;2023-02-08T12:51:17;1.30;;;1.20;;
11533;SDS011;5823;50.588;8.462;2023-02-08T12:53:45;1.90;;;1.15;;
11533;SDS011;5823;50.588;8.462;2023-02-08T12:56:16;1.50;;;1.25;;
11533;SDS011;5823;50.588;8.462;2023-02-08T12:58:44;2.50;;;1.65;;
11533;SDS011;5823;50.588;8.462;2023-02-08T13:01:13;2.33;;;2.10;;
11533;SDS011;5823;50.588;8.462;2023-02-08T13:03:42;1.45;;;1.20;;
11533;SDS011;5823;50.588;8.462;2023-02-08T13:06:12;1.23;;;1.13;;
11533;SDS011;5823;50.588;8.462;2023-02-08T13:08:44;1.05;;;0.95;;
11533;SDS011;5823;50.588;8.462;2023-02-08T13:11:14;1.40;;;1.25;;
11533;SDS011;5823;50.588;8.462;2023-02-08T13:13:42;1.40;;;1.27;;
11533;SDS011;5823;50.588;8.462;2023-02-08T13:16:12;1.48;;;1.38;;
11533;SDS011;5823;50.588;8.462;2023-02-08T13:18:42;1.30;;;1.20;;
11533;SDS011;5823;50.588;8.462;2023-02-08T13:21:11;1.90;;;1.30;;
11533;SDS011;5823;50.588;8.462;2023-02-08T13:23:39;1.55;;;1.35;;
11533;SDS011;5823;50.588;8.462;2023-02-08T13:26:09;1.42;;;1.00;;
11533;SDS011;5823;50.588;8.462;2023-02-08T13:28:36;1.10;;;1.00;;
11533;SDS011;5823;50.588;8.462;2023-02-08T13:31:04;1.90;;;1.70;;
11533;SDS011;5823;50.588;8.462;2023-02-08T13:33:33;2.10;;;1.30;;
11533;SDS011;5823;50.588;8.462;2023-02-08T13:36:01;1.40;;;1.30;;
11533;SDS011;5823;50.588;8.462;2023-02-08T13:38:28;1.15;;;1.00;;
11533;SDS011;5823;50.588;8.462;2023-02-08T13:41:05;1.55;;;1.10;;
11533;SDS011;5823;50.588;8.462;2023-02-08T13:43:35;1.75;;;1.30;;
11533;SDS011;5823;50.588;8.462;2023-02-08T13:46:02;1.60;;;1.45;;
11533;SDS011;5823;50.588;8.462;2023-02-08T13:48:38;1.00;;;1.00;;
11533;SDS011;5823;50.588;8.462;2023-02-08T13:51:05;1.83;;;1.55;;
11533;SDS011;5823;50.588;8.462;2023-02-08T13:56:19;1.67;;;1.40;;
11533;SDS011;5823;50.588;8.462;2023-02-08T13:59:03;1.30;;;1.20;;
11533;SDS011;5823;50.588;8.462;2023-02-08T14:01:30;1.17;;;0.98;;
11533;SDS011;5823;50.588;8.462;2023-02-08T14:04:22;0.75;;;0.73;;
11533;SDS011;5823;50.588;8.462;2023-02-08T14:06:52;0.98;;;0.90;;
11533;SDS011;5823;50.588;8.462;2023-02-08T14:09:22;1.00;;;0.90;;
11533;SDS011;5823;50.588;8.462;2023-02-08T14:11:52;0.90;;;0.80;;
11533;SDS011;5823;50.588;8.462;2023-02-08T14:14:21;0.90;;;0.82;;
11533;SDS011;5823;50.588;8.462;2023-02-08T14:17:06;0.65;;;0.65;;
11533;SDS011;5823;50.588;8.462;2023-02-08T14:19:34;0.98;;;0.82;;
11533;SDS011;5823;50.588;8.462;2023-02-08T14:22:02;1.65;;;1.27;;
11533;SDS011;5823;50.588;8.462;2023-02-08T14:24:30;1.75;;;1.42;;
11533;SDS011;5823;50.588;8.462;2023-02-08T14:27:05;2.25;;;1.70;;
11533;SDS011;5823;50.588;8.462;2023-02-08T14:29:33;1.50;;;1.40;;
11533;SDS011;5823;50.588;8.462;2023-02-08T14:32:00;2.10;;;1.70;;
11533;SDS011;5823;50.588;8.462;2023-02-08T14:34:27;1.88;;;1.40;;
11533;SDS011;5823;50.588;8.462;2023-02-08T14:36:59;1.33;;;1.10;;
11533;SDS011;5823;50.588;8.462;2023-02-08T14:39:26;1.20;;;1.10;;
11533;SDS011;5823;50.588;8.462;2023-02-08T14:41:54;1.55;;;1.40;;
11533;SDS011;5823;50.588;8.462;2023-02-08T14:50:11;0.90;;;0.90;;
11533;SDS011;5823;50.588;8.462;2023-02-08T14:52:40;0.82;;;0.80;;
11533;SDS011;5823;50.588;8.462;2023-02-08T14:55:11;0.68;;;0.52;;
11533;SDS011;5823;50.588;8.462;2023-02-08T14:57:38;0.57;;;0.57;;
11533;SDS011;5823;50.588;8.462;2023-02-08T15:00:06;0.85;;;0.85;;
11533;SDS011;5823;50.588;8.462;2023-02-08T15:02:41;0.73;;;0.73;;
11533;SDS011;5823;50.588;8.462;2023-02-08T15:05:17;1.05;;;0.95;;
11533;SDS011;5823;50.588;8.462;2023-02-08T15:07:45;1.10;;;0.90;;
11533;SDS011;5823;50.588;8.462;2023-02-08T15:10:13;0.70;;;0.70;;
11533;SDS011;5823;50.588;8.462;2023-02-08T15:12:42;1.20;;;1.10;;
11533;SDS011;5823;50.588;8.462;2023-02-08T15:15:18;0.82;;;0.80;;
11533;SDS011;5823;50.588;8.462;2023-02-08T15:17:47;1.23;;;1.13;;
11533;SDS011;5823;50.588;8.462;2023-02-08T15:20:15;0.93;;;0.80;;
11533;SDS011;5823;50.588;8.462;2023-02-08T15:22:43;0.45;;;0.45;;
11533;SDS011;5823;50.588;8.462;2023-02-08T15:25:21;0.45;;;0.45;;
11533;SDS011;5823;50.588;8.462;2023-02-08T15:27:48;0.50;;;0.50;;
11533;SDS011;5823;50.588;8.462;2023-02-08T15:30:21;0.20;;;0.20;;
11533;SDS011;5823;50.588;8.462;2023-02-08T15:32:47;0.47;;;0.43;;
11533;SDS011;5823;50.588;8.462;2023-02-08T15:35:14;0.40;;;0.40;;